createdAt,value
2023-05-09T03:48:09.501Z,14.90
2023-05-09T03:50:36.358Z,14.90
2023-05-09T03:53:03.565Z,14.90
2023-05-09T03:55:30.382Z,14.90
2023-05-09T03:57:57.008Z,14.90
2023-05-09T04:00:23.800Z,14.90
2023-05-09T04:02:50.687Z,14.90
2023-05-09T04:05:17.636Z,14.90
2023-05-09T04:07:44.534Z,14.90
2023-05-09T04:10:11.870Z,14.90
2023-05-09T04:12:38.555Z,14.90
2023-05-09T04:15:07.286Z,15.00
2023-05-09T04:17:33.912Z,15.00
2023-05-09T04:20:01.276Z,14.90
2023-05-09T04:22:27.899Z,14.90
2023-05-09T04:24:54.687Z,15.00
2023-05-09T04:27:21.737Z,15.00
2023-05-09T04:29:49.263Z,15.00
2023-05-09T04:32:15.923Z,15.10
2023-05-09T04:34:42.578Z,15.10
2023-05-09T04:37:09.191Z,15.10
2023-05-09T04:39:35.944Z,15.10
2023-05-09T04:42:02.589Z,15.10
2023-05-09T04:44:29.297Z,15.10
2023-05-09T04:46:56.007Z,15.10
2023-05-09T04:49:22.614Z,15.10
2023-05-09T04:51:49.312Z,15.10
2023-05-09T04:54:15.951Z,15.10
2023-05-09T04:56:42.552Z,15.10
2023-05-09T04:59:09.192Z,15.10
2023-05-09T05:01:35.866Z,15.10
2023-05-09T05:04:02.556Z,15.10
2023-05-09T05:06:29.168Z,15.10
2023-05-09T05:08:56.071Z,15.10
2023-05-09T05:11:22.720Z,15.20
2023-05-09T05:13:49.644Z,15.20
2023-05-09T05:16:16.278Z,15.10
2023-05-09T05:18:42.936Z,15.20
2023-05-09T05:21:09.926Z,15.20
2023-05-09T05:23:36.550Z,15.20
2023-05-09T05:26:03.799Z,15.30
2023-05-09T05:28:30.425Z,15.30
2023-05-09T05:30:57.047Z,15.30
2023-05-09T05:33:23.703Z,15.20
2023-05-09T05:35:50.358Z,15.20
2023-05-09T05:38:16.995Z,15.20
2023-05-09T05:40:43.565Z,15.20
2023-05-09T05:43:10.206Z,15.20
2023-05-09T05:45:37.534Z,15.20
2023-05-09T05:48:04.603Z,15.10
2023-05-09T05:50:31.266Z,15.20
2023-05-09T05:52:57.856Z,15.30
2023-05-09T05:55:24.577Z,15.40
2023-05-09T05:57:51.242Z,15.50
2023-05-09T06:00:18.045Z,15.60
2023-05-09T06:02:45.253Z,15.60
2023-05-09T06:05:12.135Z,15.60
2023-05-09T06:07:40.999Z,15.80
2023-05-09T06:10:08.648Z,15.90
2023-05-09T06:12:35.476Z,16.10
2023-05-09T06:15:04.947Z,16.10
2023-05-09T06:17:31.684Z,16.30
2023-05-09T06:19:58.381Z,16.30
2023-05-09T06:22:25.072Z,16.40
2023-05-09T06:24:51.691Z,16.80
2023-05-09T06:27:18.769Z,16.60
2023-05-09T06:29:45.534Z,16.50
2023-05-09T06:32:12.280Z,16.50
2023-05-09T06:34:38.954Z,16.60
2023-05-09T06:37:05.594Z,16.70
2023-05-09T06:39:33.457Z,16.80
2023-05-09T06:42:00.035Z,16.90
2023-05-09T06:44:26.807Z,17.00
2023-05-09T06:46:53.451Z,17.40
2023-05-09T06:49:20.088Z,17.10
2023-05-09T06:51:46.855Z,16.80
2023-05-09T06:54:13.514Z,16.80
2023-05-09T06:56:40.201Z,16.60
2023-05-09T06:59:07.806Z,16.60
2023-05-09T07:01:34.767Z,16.50
2023-05-09T07:04:01.460Z,16.40
2023-05-09T07:06:28.078Z,16.20
2023-05-09T07:08:54.690Z,16.70
2023-05-09T07:11:21.405Z,16.70
2023-05-09T07:13:48.103Z,16.70
2023-05-09T07:16:15.078Z,16.80
2023-05-09T07:18:41.749Z,17.10
2023-05-09T07:21:08.499Z,17.20
2023-05-09T07:23:35.111Z,17.20
2023-05-09T07:26:02.123Z,17.30
2023-05-09T07:28:28.783Z,17.30
2023-05-09T07:30:56.035Z,17.40
2023-05-09T07:33:22.882Z,17.40
2023-05-09T07:35:49.611Z,17.40
2023-05-09T07:38:16.197Z,17.70
2023-05-09T07:40:42.837Z,17.50
2023-05-09T07:43:09.518Z,17.60
2023-05-09T07:45:36.435Z,17.60
2023-05-09T07:48:03.363Z,17.70
2023-05-09T07:50:30.252Z,17.60
2023-05-09T07:52:57.025Z,17.60
2023-05-09T07:55:23.773Z,17.40
2023-05-09T07:57:50.429Z,17.50
2023-05-09T08:00:17.431Z,18.10
2023-05-09T08:02:44.099Z,18.10
2023-05-09T08:05:14.283Z,18.40
2023-05-09T08:07:41.100Z,18.70
2023-05-09T08:10:09.038Z,18.90
2023-05-09T08:12:35.726Z,18.50
2023-05-09T08:15:03.026Z,18.20
2023-05-09T08:17:29.629Z,18.20
2023-05-09T08:19:56.366Z,18.30
2023-05-09T08:22:23.022Z,18.60
2023-05-09T08:24:49.709Z,19.00
2023-05-09T08:27:16.561Z,19.10
2023-05-09T08:29:43.597Z,19.00
2023-05-09T08:32:10.253Z,19.00
2023-05-09T08:34:36.982Z,19.10
2023-05-09T08:37:04.523Z,19.20
2023-05-09T08:39:31.378Z,19.20
2023-05-09T08:41:59.859Z,19.10
2023-05-09T08:44:28.738Z,19.00
2023-05-09T08:46:58.995Z,19.10
2023-05-09T08:49:26.646Z,19.50
2023-05-09T08:51:54.078Z,19.90
2023-05-09T08:54:22.970Z,20.30
2023-05-09T08:56:50.957Z,20.40
2023-05-09T08:59:18.884Z,20.30
2023-05-09T09:01:45.830Z,20.70
2023-05-09T09:04:12.701Z,21.10
2023-05-09T09:06:40.552Z,21.50
2023-05-09T09:09:08.966Z,21.80
2023-05-09T09:11:36.702Z,21.70
2023-05-09T09:14:15.764Z,21.80
2023-05-09T09:16:46.617Z,21.70
2023-05-09T09:19:16.298Z,21.40
2023-05-09T09:21:47.132Z,21.10
2023-05-09T09:24:14.514Z,21.50
2023-05-09T09:26:48.735Z,22.00
2023-05-09T09:29:16.722Z,22.80
2023-05-09T09:31:48.200Z,23.70
2023-05-09T09:34:24.386Z,24.10
2023-05-09T09:36:51.060Z,24.00
2023-05-09T09:39:17.827Z,24.30
2023-05-09T09:41:44.905Z,24.20
2023-05-09T09:44:16.703Z,24.10
2023-05-09T09:46:54.390Z,23.60
2023-05-09T09:49:26.110Z,23.40
2023-05-09T09:51:57.941Z,23.00
2023-05-09T09:54:28.184Z,22.80
2023-05-09T09:56:56.454Z,22.70
2023-05-09T09:59:25.916Z,22.40
2023-05-09T10:01:59.709Z,22.40
2023-05-09T10:04:31.815Z,22.50
2023-05-09T10:07:00.746Z,22.10
2023-05-09T10:09:28.356Z,21.80
2023-05-09T10:11:56.489Z,21.50
2023-05-09T10:14:25.890Z,21.40
2023-05-09T10:16:58.767Z,21.20
2023-05-09T10:19:28.551Z,21.30
2023-05-09T10:22:04.178Z,21.30
2023-05-09T10:24:47.929Z,21.70
2023-05-09T10:27:17.889Z,22.30
2023-05-09T10:29:57.293Z,23.90
2023-05-09T10:32:31.018Z,25.50
2023-05-09T10:35:04.524Z,26.80
2023-05-09T10:37:33.383Z,27.00
2023-05-09T10:40:05.065Z,26.50
2023-05-09T10:42:32.336Z,26.40
2023-05-09T10:44:59.102Z,25.60
2023-05-09T10:47:27.929Z,25.60
2023-05-09T10:49:55.977Z,26.40
2023-05-09T10:52:23.027Z,27.30
2023-05-09T10:55:04.334Z,27.50
2023-05-09T10:57:32.339Z,28.20
2023-05-09T11:00:00.392Z,28.00
2023-05-09T11:02:29.158Z,26.60
2023-05-09T11:05:18.728Z,25.60
2023-05-09T11:07:45.672Z,25.20
2023-05-09T11:10:17.658Z,25.20
2023-05-09T11:12:58.482Z,25.10
2023-05-09T11:15:27.815Z,25.20
2023-05-09T11:18:10.999Z,25.20
2023-05-09T11:20:45.774Z,24.70
2023-05-09T11:23:17.204Z,24.70
2023-05-09T11:25:47.733Z,24.40
2023-05-09T11:28:35.380Z,24.40
2023-05-09T11:31:13.787Z,24.60
2023-05-09T11:33:41.834Z,24.60
2023-05-09T11:36:15.721Z,24.60
2023-05-09T11:38:42.858Z,25.00
2023-05-09T11:41:09.675Z,25.30
2023-05-09T11:43:37.811Z,24.80
2023-05-09T11:46:05.446Z,24.70
2023-05-09T11:48:38.448Z,24.40
2023-05-09T11:51:05.243Z,24.70
2023-05-09T11:53:32.337Z,25.20
2023-05-09T11:56:03.125Z,25.70
2023-05-09T11:58:29.927Z,26.20
2023-05-09T12:00:57.615Z,26.40
2023-05-09T12:03:25.123Z,26.40
2023-05-09T12:05:53.936Z,26.40
2023-05-09T12:08:22.896Z,26.20
2023-05-09T12:10:49.751Z,25.80
2023-05-09T12:13:16.685Z,24.70
2023-05-09T12:15:43.413Z,24.00
2023-05-09T12:18:10.249Z,24.10
2023-05-09T12:20:44.594Z,24.30
2023-05-09T12:23:12.533Z,24.50
2023-05-09T12:25:39.225Z,24.50
2023-05-09T12:28:06.178Z,24.60
2023-05-09T12:30:33.112Z,24.70
2023-05-09T12:33:00.009Z,25.20
2023-05-09T12:35:26.985Z,25.10
2023-05-09T12:37:58.708Z,25.10
2023-05-09T12:40:25.499Z,25.10
2023-05-09T12:42:59.884Z,24.70
2023-05-09T12:45:27.355Z,24.60
2023-05-09T12:47:54.436Z,24.60
2023-05-09T12:50:21.396Z,24.30
2023-05-09T12:53:02.556Z,23.70
2023-05-09T12:55:31.792Z,22.80
2023-05-09T12:58:03.433Z,22.70
2023-05-09T13:00:45.562Z,22.50
2023-05-09T13:03:30.617Z,22.40
2023-05-09T13:05:58.341Z,22.30
2023-05-09T13:08:25.502Z,22.30
2023-05-09T13:10:57.801Z,22.40
2023-05-09T13:13:31.432Z,22.60
2023-05-09T13:15:58.197Z,22.80
2023-05-09T13:18:24.867Z,22.90
2023-05-09T13:20:51.981Z,23.00
2023-05-09T13:23:18.825Z,23.20
2023-05-09T13:25:45.508Z,23.50
2023-05-09T13:28:12.135Z,23.60
2023-05-09T13:30:38.980Z,23.80
2023-05-09T13:33:16.640Z,24.00
2023-05-09T13:35:51.635Z,24.20
2023-05-09T13:38:18.319Z,24.40
2023-05-09T13:40:44.970Z,24.30
2023-05-09T13:43:11.659Z,24.20
2023-05-09T13:45:38.337Z,24.30
2023-05-09T13:48:05.405Z,24.50
2023-05-09T13:50:32.101Z,24.70
2023-05-09T13:52:59.000Z,24.60
2023-05-09T13:55:26.927Z,24.50
2023-05-09T13:57:53.660Z,24.30
2023-05-09T14:00:21.525Z,24.10
2023-05-09T14:02:48.658Z,23.50
2023-05-09T14:05:15.541Z,23.30
2023-05-09T14:07:42.750Z,23.10
2023-05-09T14:10:15.883Z,22.80
2023-05-09T14:12:44.507Z,22.90
2023-05-09T14:15:11.463Z,23.30
2023-05-09T14:17:38.799Z,23.20
2023-05-09T14:20:06.604Z,23.10
2023-05-09T14:22:33.315Z,23.00
2023-05-09T14:25:00.321Z,23.40
2023-05-09T14:27:27.314Z,23.50
2023-05-09T14:29:54.105Z,23.60
2023-05-09T14:32:21.005Z,23.60
2023-05-09T14:34:49.632Z,23.50
2023-05-09T14:37:16.849Z,23.30
2023-05-09T14:39:45.526Z,23.20
2023-05-09T14:42:14.036Z,23.10
2023-05-09T14:44:41.340Z,22.80
2023-05-09T14:47:09.785Z,22.70
2023-05-09T14:49:37.741Z,22.50
2023-05-09T14:52:04.497Z,22.40
2023-05-09T14:54:31.660Z,22.30
2023-05-09T14:56:59.542Z,22.20
2023-05-09T14:59:26.302Z,22.00
2023-05-09T15:01:53.650Z,21.90
2023-05-09T15:04:20.333Z,21.90
2023-05-09T15:06:47.479Z,22.10
2023-05-09T15:09:14.738Z,22.20
2023-05-09T15:11:47.718Z,22.10
2023-05-09T15:14:16.352Z,22.10
2023-05-09T15:16:43.224Z,22.20
2023-05-09T15:19:09.981Z,22.20
2023-05-09T15:21:36.771Z,22.00
2023-05-09T15:24:04.386Z,21.80
2023-05-09T15:26:31.167Z,21.80
2023-05-09T15:28:57.835Z,21.80
2023-05-09T15:31:25.509Z,21.60
2023-05-09T15:33:52.355Z,21.60
2023-05-09T15:36:19.057Z,21.50
2023-05-09T15:38:49.116Z,21.50
2023-05-09T15:41:16.124Z,21.60
2023-05-09T15:43:42.825Z,21.50
2023-05-09T15:46:09.522Z,21.40
2023-05-09T15:48:36.317Z,21.30
2023-05-09T15:51:04.086Z,21.20
2023-05-09T15:53:31.151Z,21.10
2023-05-09T15:55:57.981Z,21.00
2023-05-09T15:58:24.874Z,21.10
2023-05-09T16:00:51.705Z,21.10
2023-05-09T16:03:18.844Z,20.90
2023-05-09T16:05:45.720Z,20.60
2023-05-09T16:08:12.565Z,20.10
2023-05-09T16:10:39.272Z,19.70
2023-05-09T16:13:06.730Z,19.30
2023-05-09T16:15:34.295Z,18.60
2023-05-09T16:18:01.088Z,18.20
2023-05-09T16:20:27.818Z,17.80
2023-05-09T16:22:54.689Z,17.50
2023-05-09T16:25:21.593Z,17.50
2023-05-09T16:27:48.307Z,17.30
2023-05-09T16:30:16.256Z,17.30
2023-05-09T16:32:43.377Z,17.30
2023-05-09T16:35:10.839Z,17.20
2023-05-09T16:37:37.693Z,17.10
2023-05-09T16:40:04.929Z,17.10
2023-05-09T16:42:31.897Z,17.20
2023-05-09T16:44:58.707Z,17.20
2023-05-09T16:47:25.564Z,17.20
2023-05-09T16:49:52.302Z,17.10
2023-05-09T16:52:19.049Z,16.90
2023-05-09T16:54:45.811Z,16.80
2023-05-09T16:57:13.198Z,16.70
2023-05-09T16:59:40.650Z,16.70
2023-05-09T17:02:07.701Z,16.60
2023-05-09T17:04:36.707Z,16.60
2023-05-09T17:07:04.391Z,16.60
2023-05-09T17:09:31.753Z,16.50
2023-05-09T17:11:58.940Z,16.40
2023-05-09T17:14:26.753Z,16.40
2023-05-09T17:16:53.987Z,16.40
2023-05-09T17:19:23.375Z,16.40
2023-05-09T17:21:50.856Z,16.50
2023-05-09T17:24:28.631Z,16.50
2023-05-09T17:26:57.734Z,16.50
2023-05-09T17:29:27.192Z,16.50
2023-05-09T17:32:02.549Z,16.50
2023-05-09T17:34:29.587Z,16.60
2023-05-09T17:36:56.610Z,16.60
2023-05-09T17:39:23.832Z,16.60
2023-05-09T17:41:50.559Z,16.60
2023-05-09T17:44:17.273Z,16.50
2023-05-09T17:46:44.220Z,16.40
2023-05-09T17:49:13.928Z,16.40
2023-05-09T17:51:41.179Z,16.40
2023-05-09T17:54:08.126Z,16.20
2023-05-09T17:56:34.849Z,16.10
2023-05-09T17:59:01.648Z,16.00
2023-05-09T18:01:29.681Z,16.00
2023-05-09T18:03:56.863Z,16.10
2023-05-09T18:06:24.024Z,16.10
2023-05-09T18:08:51.021Z,16.20
2023-05-09T18:11:17.710Z,16.20
2023-05-09T18:13:44.384Z,16.20
2023-05-09T18:16:11.156Z,16.10
2023-05-09T18:18:37.928Z,16.00
2023-05-09T18:21:05.422Z,15.90
2023-05-09T18:23:32.173Z,15.80
2023-05-09T18:25:59.099Z,15.80
2023-05-09T18:28:26.057Z,15.60
2023-05-09T18:31:00.531Z,15.70
2023-05-09T18:33:28.671Z,15.60
2023-05-09T18:35:55.626Z,15.40
2023-05-09T18:38:22.705Z,15.40
2023-05-09T18:40:51.766Z,15.50
2023-05-09T18:43:20.647Z,15.40
2023-05-09T18:45:48.117Z,15.30
2023-05-09T18:48:17.942Z,15.30
2023-05-09T18:50:44.760Z,15.20
2023-05-09T18:53:11.542Z,15.10
2023-05-09T18:55:38.709Z,15.20
2023-05-09T18:58:07.090Z,15.20
2023-05-09T19:00:34.776Z,15.30
2023-05-09T19:03:01.672Z,15.40
2023-05-09T19:05:28.595Z,15.40
2023-05-09T19:07:55.298Z,15.50
2023-05-09T19:10:21.976Z,15.60
2023-05-09T19:12:49.248Z,15.60
2023-05-09T19:15:16.076Z,15.60
2023-05-09T19:17:43.070Z,15.50
2023-05-09T19:20:10.646Z,15.30
2023-05-09T19:22:37.452Z,15.10
2023-05-09T19:25:04.348Z,15.00
2023-05-09T19:27:31.180Z,15.00
2023-05-09T19:29:59.310Z,15.00
2023-05-09T19:32:26.046Z,15.00
2023-05-09T19:34:52.810Z,15.00
2023-05-09T19:37:19.480Z,15.00
2023-05-09T19:39:46.225Z,15.10
2023-05-09T19:42:13.020Z,15.10
2023-05-09T19:44:40.484Z,15.10
2023-05-09T19:47:09.002Z,15.10
2023-05-09T19:49:35.890Z,15.00
2023-05-09T19:52:02.702Z,14.90
2023-05-09T19:54:31.922Z,15.00
2023-05-09T19:56:58.688Z,14.80
2023-05-09T19:59:25.415Z,14.80
2023-05-09T20:01:52.192Z,14.80
2023-05-09T20:04:21.827Z,14.70
2023-05-09T20:06:49.075Z,14.60
2023-05-09T20:09:17.870Z,14.60
2023-05-09T20:11:44.587Z,14.60
2023-05-09T20:14:11.443Z,14.60
2023-05-09T20:16:38.212Z,14.60
2023-05-09T20:19:07.539Z,14.60
2023-05-09T20:21:34.380Z,14.50
2023-05-09T20:24:01.646Z,14.40
2023-05-09T20:26:29.620Z,14.30
2023-05-09T20:29:01.216Z,14.30
2023-05-09T20:31:29.289Z,14.40
2023-05-09T20:33:57.415Z,14.40
2023-05-09T20:36:25.005Z,14.30
2023-05-09T20:38:51.795Z,14.40
2023-05-09T20:41:18.529Z,14.40
2023-05-09T20:43:45.329Z,14.40
2023-05-09T20:46:12.418Z,14.50
2023-05-09T20:48:39.238Z,14.40
2023-05-09T20:51:05.920Z,14.40
2023-05-09T20:53:34.810Z,14.40
2023-05-09T20:56:02.185Z,14.40
2023-05-09T20:58:32.769Z,14.40
2023-05-09T21:00:59.704Z,14.50
2023-05-09T21:03:26.558Z,14.50
2023-05-09T21:05:53.825Z,14.50
2023-05-09T21:08:20.515Z,14.50
2023-05-09T21:10:47.267Z,14.50
2023-05-09T21:13:14.044Z,14.50
2023-05-09T21:15:40.711Z,14.50
2023-05-09T21:18:07.448Z,14.60
2023-05-09T21:20:34.211Z,14.50
2023-05-09T21:23:00.953Z,14.50
2023-05-09T21:25:27.663Z,14.40
2023-05-09T21:27:54.343Z,14.40
2023-05-09T21:30:21.134Z,14.40
2023-05-09T21:32:49.893Z,14.30
2023-05-09T21:35:16.735Z,14.40
2023-05-09T21:37:43.574Z,14.50
2023-05-09T21:40:10.638Z,14.50
2023-05-09T21:42:37.709Z,14.50
2023-05-09T21:45:05.380Z,14.50
2023-05-09T21:47:32.257Z,14.50
2023-05-09T21:49:59.902Z,14.50
2023-05-09T21:52:26.612Z,14.50
2023-05-09T21:54:53.243Z,14.50
2023-05-09T21:57:19.945Z,14.50
2023-05-09T21:59:46.612Z,14.50
2023-05-09T22:02:14.339Z,14.40
2023-05-09T22:04:41.083Z,14.40
2023-05-09T22:07:08.440Z,14.40
2023-05-09T22:09:35.364Z,14.50
2023-05-09T22:12:02.269Z,14.50
2023-05-09T22:14:28.964Z,14.50
2023-05-09T22:16:55.697Z,14.60
2023-05-09T22:19:22.378Z,14.50
2023-05-09T22:21:49.123Z,14.40
2023-05-09T22:24:15.824Z,14.40
2023-05-09T22:26:42.479Z,14.20
2023-05-09T22:29:09.210Z,14.10
2023-05-09T22:31:36.003Z,14.10
2023-05-09T22:34:03.608Z,14.10
2023-05-09T22:36:30.335Z,14.10
2023-05-09T22:38:57.041Z,14.10
2023-05-09T22:41:23.748Z,14.10
2023-05-09T22:43:50.874Z,14.00
2023-05-09T22:46:17.623Z,13.90
2023-05-09T22:48:44.374Z,13.90
2023-05-09T22:51:11.624Z,13.90
2023-05-09T22:53:38.330Z,13.80
2023-05-09T22:56:05.321Z,13.80
2023-05-09T22:58:31.982Z,13.80
